sensor_id;sensor_type;location;lat;lon;timestamp;P1;durP1;ratioP1;P2;durP2;ratioP2
13868;SDS011;7004;48.206;16.402;2022-08-06T00:01:51;6.67;;;5.90;;
13868;SDS011;7004;48.206;16.402;2022-08-06T00:04:18;6.27;;;5.67;;
13868;SDS011;7004;48.206;16.402;2022-08-06T00:06:44;6.77;;;5.97;;
13868;SDS011;7004;48.206;16.402;2022-08-06T00:09:11;6.07;;;5.57;;
13868;SDS011;7004;48.206;16.402;2022-08-06T00:11:38;6.00;;;5.50;;
13868;SDS011;7004;48.206;16.402;2022-08-06T00:14:05;6.30;;;5.37;;
13868;SDS011;7004;48.206;16.402;2022-08-06T00:16:32;6.17;;;5.50;;
13868;SDS011;7004;48.206;16.402;2022-08-06T00:18:59;9.47;;;5.80;;
13868;SDS011;7004;48.206;16.402;2022-08-06T00:21:25;6.03;;;5.53;;
13868;SDS011;7004;48.206;16.402;2022-08-06T00:23:51;6.17;;;5.67;;
13868;SDS011;7004;48.206;16.402;2022-08-06T00:26:18;6.10;;;5.50;;
13868;SDS011;7004;48.206;16.402;2022-08-06T00:28:44;6.23;;;5.73;;
13868;SDS011;7004;48.206;16.402;2022-08-06T00:31:10;6.97;;;5.67;;
13868;SDS011;7004;48.206;16.402;2022-08-06T00:33:36;5.30;;;4.90;;
13868;SDS011;7004;48.206;16.402;2022-08-06T00:36:03;8.13;;;5.10;;
13868;SDS011;7004;48.206;16.402;2022-08-06T00:38:30;5.13;;;4.80;;
13868;SDS011;7004;48.206;16.402;2022-08-06T00:40:56;5.63;;;5.03;;
13868;SDS011;7004;48.206;16.402;2022-08-06T00:43:22;5.70;;;5.10;;
13868;SDS011;7004;48.206;16.402;2022-08-06T00:45:48;7.03;;;4.90;;
13868;SDS011;7004;48.206;16.402;2022-08-06T00:48:15;5.93;;;5.07;;
13868;SDS011;7004;48.206;16.402;2022-08-06T00:50:41;8.57;;;5.00;;
13868;SDS011;7004;48.206;16.402;2022-08-06T00:53:07;5.33;;;4.93;;
13868;SDS011;7004;48.206;16.402;2022-08-06T00:55:33;5.90;;;5.40;;
13868;SDS011;7004;48.206;16.402;2022-08-06T00:57:59;8.10;;;5.33;;
13868;SDS011;7004;48.206;16.402;2022-08-06T01:00:26;6.50;;;5.30;;
13868;SDS011;7004;48.206;16.402;2022-08-06T01:02:52;6.03;;;5.40;;
13868;SDS011;7004;48.206;16.402;2022-08-06T01:05:18;7.63;;;5.10;;
13868;SDS011;7004;48.206;16.402;2022-08-06T01:07:44;5.37;;;4.97;;
13868;SDS011;7004;48.206;16.402;2022-08-06T01:10:10;6.10;;;5.10;;
13868;SDS011;7004;48.206;16.402;2022-08-06T01:12:36;5.23;;;4.83;;
13868;SDS011;7004;48.206;16.402;2022-08-06T01:15:03;7.93;;;5.40;;
13868;SDS011;7004;48.206;16.402;2022-08-06T01:17:36;6.03;;;5.17;;
13868;SDS011;7004;48.206;16.402;2022-08-06T01:31:45;5.53;;;5.03;;
13868;SDS011;7004;48.206;16.402;2022-08-06T01:37:04;7.10;;;5.30;;
13868;SDS011;7004;48.206;16.402;2022-08-06T01:39:35;5.90;;;5.40;;
13868;SDS011;7004;48.206;16.402;2022-08-06T01:42:03;5.60;;;5.10;;
13868;SDS011;7004;48.206;16.402;2022-08-06T01:44:32;6.13;;;5.23;;
13868;SDS011;7004;48.206;16.402;2022-08-06T01:47:12;5.37;;;4.80;;
13868;SDS011;7004;48.206;16.402;2022-08-06T01:49:41;8.50;;;4.97;;
13868;SDS011;7004;48.206;16.402;2022-08-06T01:52:14;5.83;;;5.30;;
13868;SDS011;7004;48.206;16.402;2022-08-06T01:54:43;5.67;;;4.73;;
13868;SDS011;7004;48.206;16.402;2022-08-06T01:57:13;6.93;;;5.20;;
13868;SDS011;7004;48.206;16.402;2022-08-06T01:59:45;5.63;;;5.13;;
13868;SDS011;7004;48.206;16.402;2022-08-06T02:02:18;11.33;;;5.83;;
13868;SDS011;7004;48.206;16.402;2022-08-06T02:04:50;6.17;;;5.00;;
13868;SDS011;7004;48.206;16.402;2022-08-06T02:07:21;5.70;;;5.20;;
13868;SDS011;7004;48.206;16.402;2022-08-06T02:09:50;10.47;;;4.60;;
13868;SDS011;7004;48.206;16.402;2022-08-06T02:12:20;6.27;;;5.37;;
13868;SDS011;7004;48.206;16.402;2022-08-06T02:15:10;5.50;;;4.90;;
13868;SDS011;7004;48.206;16.402;2022-08-06T02:17:49;6.03;;;5.10;;
13868;SDS011;7004;48.206;16.402;2022-08-06T02:20:19;8.97;;;4.90;;
13868;SDS011;7004;48.206;16.402;2022-08-06T02:22:50;9.07;;;4.77;;
13868;SDS011;7004;48.206;16.402;2022-08-06T02:25:19;5.87;;;4.80;;
13868;SDS011;7004;48.206;16.402;2022-08-06T02:27:47;6.43;;;5.07;;
13868;SDS011;7004;48.206;16.402;2022-08-06T02:30:17;5.43;;;4.60;;
13868;SDS011;7004;48.206;16.402;2022-08-06T02:32:43;5.73;;;4.80;;
13868;SDS011;7004;48.206;16.402;2022-08-06T02:35:10;6.93;;;4.60;;
13868;SDS011;7004;48.206;16.402;2022-08-06T02:37:52;6.07;;;4.83;;
13868;SDS011;7004;48.206;16.402;2022-08-06T02:40:37;5.93;;;5.13;;
13868;SDS011;7004;48.206;16.402;2022-08-06T02:43:18;8.87;;;4.60;;
13868;SDS011;7004;48.206;16.402;2022-08-06T02:46:10;8.13;;;5.37;;
13868;SDS011;7004;48.206;16.402;2022-08-06T02:48:51;5.90;;;5.30;;
13868;SDS011;7004;48.206;16.402;2022-08-06T02:51:38;5.83;;;5.33;;
13868;SDS011;7004;48.206;16.402;2022-08-06T02:57:28;5.60;;;5.00;;
13868;SDS011;7004;48.206;16.402;2022-08-06T03:00:03;5.73;;;5.23;;
13868;SDS011;7004;48.206;16.402;2022-08-06T03:02:32;6.90;;;5.23;;
13868;SDS011;7004;48.206;16.402;2022-08-06T03:05:06;7.43;;;4.80;;
13868;SDS011;7004;48.206;16.402;2022-08-06T03:07:38;5.90;;;5.40;;
13868;SDS011;7004;48.206;16.402;2022-08-06T03:10:06;7.30;;;5.20;;
13868;SDS011;7004;48.206;16.402;2022-08-06T03:12:35;5.13;;;4.73;;
13868;SDS011;7004;48.206;16.402;2022-08-06T03:15:03;5.63;;;5.03;;
13868;SDS011;7004;48.206;16.402;2022-08-06T03:17:32;6.20;;;5.60;;
13868;SDS011;7004;48.206;16.402;2022-08-06T03:20:01;6.60;;;5.30;;
13868;SDS011;7004;48.206;16.402;2022-08-06T03:22:29;6.23;;;5.70;;
13868;SDS011;7004;48.206;16.402;2022-08-06T03:24:58;6.17;;;5.67;;
13868;SDS011;7004;48.206;16.402;2022-08-06T03:27:25;6.63;;;5.80;;
13868;SDS011;7004;48.206;16.402;2022-08-06T03:29:52;8.40;;;6.10;;
13868;SDS011;7004;48.206;16.402;2022-08-06T03:32:20;6.17;;;5.50;;
13868;SDS011;7004;48.206;16.402;2022-08-06T03:34:47;7.00;;;6.23;;
13868;SDS011;7004;48.206;16.402;2022-08-06T03:37:15;6.23;;;5.67;;
13868;SDS011;7004;48.206;16.402;2022-08-06T03:39:44;11.33;;;5.73;;
13868;SDS011;7004;48.206;16.402;2022-08-06T03:42:13;7.13;;;6.27;;
13868;SDS011;7004;48.206;16.402;2022-08-06T03:44:39;6.50;;;5.80;;
13868;SDS011;7004;48.206;16.402;2022-08-06T03:47:07;7.63;;;5.87;;
13868;SDS011;7004;48.206;16.402;2022-08-06T03:52:26;7.10;;;5.53;;
13868;SDS011;7004;48.206;16.402;2022-08-06T03:54:57;5.90;;;5.40;;
13868;SDS011;7004;48.206;16.402;2022-08-06T03:57:39;6.30;;;5.80;;
13868;SDS011;7004;48.206;16.402;2022-08-06T04:00:09;6.60;;;6.00;;
13868;SDS011;7004;48.206;16.402;2022-08-06T04:02:39;7.93;;;6.13;;
13868;SDS011;7004;48.206;16.402;2022-08-06T04:05:10;6.90;;;6.23;;
13868;SDS011;7004;48.206;16.402;2022-08-06T04:07:46;6.70;;;6.10;;
13868;SDS011;7004;48.206;16.402;2022-08-06T04:10:15;6.90;;;6.20;;
13868;SDS011;7004;48.206;16.402;2022-08-06T04:12:43;7.23;;;6.53;;
13868;SDS011;7004;48.206;16.402;2022-08-06T04:15:10;6.60;;;5.90;;
13868;SDS011;7004;48.206;16.402;2022-08-06T04:17:39;7.03;;;6.30;;
13868;SDS011;7004;48.206;16.402;2022-08-06T04:20:10;6.97;;;6.27;;
13868;SDS011;7004;48.206;16.402;2022-08-06T04:22:40;6.97;;;5.80;;
13868;SDS011;7004;48.206;16.402;2022-08-06T04:25:06;6.60;;;6.00;;
13868;SDS011;7004;48.206;16.402;2022-08-06T04:27:36;8.43;;;5.50;;
13868;SDS011;7004;48.206;16.402;2022-08-06T04:30:06;6.83;;;6.20;;
13868;SDS011;7004;48.206;16.402;2022-08-06T04:32:33;8.03;;;6.80;;
13868;SDS011;7004;48.206;16.402;2022-08-06T04:35:02;6.83;;;6.23;;
13868;SDS011;7004;48.206;16.402;2022-08-06T04:37:32;6.47;;;5.87;;
13868;SDS011;7004;48.206;16.402;2022-08-06T04:39:59;6.67;;;5.77;;
13868;SDS011;7004;48.206;16.402;2022-08-06T04:42:27;6.87;;;6.17;;
13868;SDS011;7004;48.206;16.402;2022-08-06T04:44:54;7.80;;;7.03;;
13868;SDS011;7004;48.206;16.402;2022-08-06T04:47:21;9.47;;;6.67;;
13868;SDS011;7004;48.206;16.402;2022-08-06T04:49:48;7.10;;;6.50;;
13868;SDS011;7004;48.206;16.402;2022-08-06T04:52:24;6.70;;;6.10;;
13868;SDS011;7004;48.206;16.402;2022-08-06T04:54:51;8.93;;;6.70;;
13868;SDS011;7004;48.206;16.402;2022-08-06T04:57:17;7.10;;;6.40;;
13868;SDS011;7004;48.206;16.402;2022-08-06T04:59:44;7.03;;;6.43;;
13868;SDS011;7004;48.206;16.402;2022-08-06T05:02:10;7.10;;;6.33;;
13868;SDS011;7004;48.206;16.402;2022-08-06T05:04:36;7.87;;;6.47;;
13868;SDS011;7004;48.206;16.402;2022-08-06T05:07:24;7.27;;;6.67;;
13868;SDS011;7004;48.206;16.402;2022-08-06T05:09:56;7.23;;;6.63;;
13868;SDS011;7004;48.206;16.402;2022-08-06T05:12:38;7.40;;;6.20;;
13868;SDS011;7004;48.206;16.402;2022-08-06T05:15:10;7.00;;;6.40;;
13868;SDS011;7004;48.206;16.402;2022-08-06T05:18:08;7.17;;;6.47;;
13868;SDS011;7004;48.206;16.402;2022-08-06T05:20:49;6.87;;;6.27;;
13868;SDS011;7004;48.206;16.402;2022-08-06T05:24:02;7.33;;;6.37;;
13868;SDS011;7004;48.206;16.402;2022-08-06T05:26:14;9.77;;;6.10;;
13868;SDS011;7004;48.206;16.402;2022-08-06T05:28:41;7.00;;;6.40;;
13868;SDS011;7004;48.206;16.402;2022-08-06T05:31:08;6.77;;;6.00;;
13868;SDS011;7004;48.206;16.402;2022-08-06T05:33:36;7.23;;;6.23;;
13868;SDS011;7004;48.206;16.402;2022-08-06T05:36:04;7.37;;;6.43;;
13868;SDS011;7004;48.206;16.402;2022-08-06T05:38:34;7.60;;;6.40;;
13868;SDS011;7004;48.206;16.402;2022-08-06T05:41:07;8.03;;;6.27;;
13868;SDS011;7004;48.206;16.402;2022-08-06T05:43:36;6.57;;;5.97;;
13868;SDS011;7004;48.206;16.402;2022-08-06T05:46:09;6.20;;;5.70;;
13868;SDS011;7004;48.206;16.402;2022-08-06T05:48:39;8.03;;;6.20;;
13868;SDS011;7004;48.206;16.402;2022-08-06T05:51:19;6.83;;;6.20;;
13868;SDS011;7004;48.206;16.402;2022-08-06T05:53:53;7.03;;;6.33;;
13868;SDS011;7004;48.206;16.402;2022-08-06T05:56:31;6.93;;;6.33;;
13868;SDS011;7004;48.206;16.402;2022-08-06T05:59:06;8.10;;;6.83;;
13868;SDS011;7004;48.206;16.402;2022-08-06T06:01:51;6.87;;;6.27;;
13868;SDS011;7004;48.206;16.402;2022-08-06T06:04:18;10.67;;;7.00;;
13868;SDS011;7004;48.206;16.402;2022-08-06T06:06:45;7.73;;;7.10;;
13868;SDS011;7004;48.206;16.402;2022-08-06T06:09:11;7.50;;;6.73;;
13868;SDS011;7004;48.206;16.402;2022-08-06T06:11:39;6.80;;;6.30;;
13868;SDS011;7004;48.206;16.402;2022-08-06T06:14:51;7.43;;;6.73;;
13868;SDS011;7004;48.206;16.402;2022-08-06T06:20:22;7.23;;;6.40;;
13868;SDS011;7004;48.206;16.402;2022-08-06T06:29:04;7.47;;;6.70;;
13868;SDS011;7004;48.206;16.402;2022-08-06T06:34:43;7.33;;;6.40;;
13868;SDS011;7004;48.206;16.402;2022-08-06T06:40:34;7.40;;;6.73;;
13868;SDS011;7004;48.206;16.402;2022-08-06T06:43:43;8.93;;;6.30;;
13868;SDS011;7004;48.206;16.402;2022-08-06T06:49:00;6.97;;;6.30;;
13868;SDS011;7004;48.206;16.402;2022-08-06T06:51:36;7.17;;;6.17;;
13868;SDS011;7004;48.206;16.402;2022-08-06T06:54:21;6.27;;;5.67;;
13868;SDS011;7004;48.206;16.402;2022-08-06T06:56:54;6.30;;;5.70;;
13868;SDS011;7004;48.206;16.402;2022-08-06T06:59:29;6.73;;;5.57;;
13868;SDS011;7004;48.206;16.402;2022-08-06T07:02:01;6.03;;;5.47;;
13868;SDS011;7004;48.206;16.402;2022-08-06T07:04:30;4.97;;;4.57;;
13868;SDS011;7004;48.206;16.402;2022-08-06T07:06:59;6.40;;;4.73;;
13868;SDS011;7004;48.206;16.402;2022-08-06T07:09:28;5.20;;;4.70;;
13868;SDS011;7004;48.206;16.402;2022-08-06T07:11:57;4.40;;;3.93;;
13868;SDS011;7004;48.206;16.402;2022-08-06T07:14:25;4.47;;;4.07;;
13868;SDS011;7004;48.206;16.402;2022-08-06T07:16:54;3.63;;;3.33;;
13868;SDS011;7004;48.206;16.402;2022-08-06T07:19:22;3.70;;;3.40;;
13868;SDS011;7004;48.206;16.402;2022-08-06T07:21:49;3.60;;;3.30;;
13868;SDS011;7004;48.206;16.402;2022-08-06T07:24:17;3.70;;;3.40;;
13868;SDS011;7004;48.206;16.402;2022-08-06T07:26:45;3.73;;;3.30;;
13868;SDS011;7004;48.206;16.402;2022-08-06T07:29:14;3.43;;;3.13;;
13868;SDS011;7004;48.206;16.402;2022-08-06T07:31:42;3.17;;;2.90;;
13868;SDS011;7004;48.206;16.402;2022-08-06T07:34:09;3.00;;;2.70;;
13868;SDS011;7004;48.206;16.402;2022-08-06T07:36:37;3.03;;;2.70;;
13868;SDS011;7004;48.206;16.402;2022-08-06T07:39:16;3.33;;;2.80;;
13868;SDS011;7004;48.206;16.402;2022-08-06T07:41:52;4.23;;;3.20;;
13868;SDS011;7004;48.206;16.402;2022-08-06T07:44:23;2.97;;;2.67;;
13868;SDS011;7004;48.206;16.402;2022-08-06T07:46:52;4.07;;;2.77;;
13868;SDS011;7004;48.206;16.402;2022-08-06T07:49:24;2.73;;;2.53;;
13868;SDS011;7004;48.206;16.402;2022-08-06T07:52:02;6.47;;;2.80;;
13868;SDS011;7004;48.206;16.402;2022-08-06T07:54:29;2.67;;;2.47;;
13868;SDS011;7004;48.206;16.402;2022-08-06T07:56:57;2.53;;;2.33;;
13868;SDS011;7004;48.206;16.402;2022-08-06T07:59:25;2.30;;;2.10;;
13868;SDS011;7004;48.206;16.402;2022-08-06T08:01:52;2.77;;;2.40;;
13868;SDS011;7004;48.206;16.402;2022-08-06T08:04:18;2.77;;;2.43;;
13868;SDS011;7004;48.206;16.402;2022-08-06T08:07:05;2.73;;;2.53;;
13868;SDS011;7004;48.206;16.402;2022-08-06T08:09:32;3.10;;;2.30;;
13868;SDS011;7004;48.206;16.402;2022-08-06T08:12:01;2.00;;;1.90;;
13868;SDS011;7004;48.206;16.402;2022-08-06T08:14:27;2.30;;;2.10;;
13868;SDS011;7004;48.206;16.402;2022-08-06T08:16:56;1.97;;;1.80;;
13868;SDS011;7004;48.206;16.402;2022-08-06T08:19:23;3.17;;;1.90;;
13868;SDS011;7004;48.206;16.402;2022-08-06T08:21:59;1.80;;;1.60;;
13868;SDS011;7004;48.206;16.402;2022-08-06T08:24:37;3.37;;;1.57;;
13868;SDS011;7004;48.206;16.402;2022-08-06T08:27:05;2.00;;;1.80;;
13868;SDS011;7004;48.206;16.402;2022-08-06T08:29:40;2.60;;;1.50;;
13868;SDS011;7004;48.206;16.402;2022-08-06T08:32:07;1.70;;;1.60;;
13868;SDS011;7004;48.206;16.402;2022-08-06T08:34:34;1.67;;;1.57;;
13868;SDS011;7004;48.206;16.402;2022-08-06T08:37:01;1.80;;;1.70;;
13868;SDS011;7004;48.206;16.402;2022-08-06T08:39:28;1.60;;;1.50;;
13868;SDS011;7004;48.206;16.402;2022-08-06T08:41:58;2.37;;;1.70;;
13868;SDS011;7004;48.206;16.402;2022-08-06T08:44:35;1.70;;;1.60;;
13868;SDS011;7004;48.206;16.402;2022-08-06T08:47:02;1.70;;;1.60;;
13868;SDS011;7004;48.206;16.402;2022-08-06T08:49:36;2.47;;;1.90;;
13868;SDS011;7004;48.206;16.402;2022-08-06T08:52:15;1.90;;;1.60;;
13868;SDS011;7004;48.206;16.402;2022-08-06T08:54:50;2.00;;;1.73;;
13868;SDS011;7004;48.206;16.402;2022-08-06T08:57:19;1.50;;;1.40;;
13868;SDS011;7004;48.206;16.402;2022-08-06T08:59:47;1.57;;;1.40;;
13868;SDS011;7004;48.206;16.402;2022-08-06T09:02:15;1.10;;;1.10;;
13868;SDS011;7004;48.206;16.402;2022-08-06T09:04:41;1.63;;;1.30;;
13868;SDS011;7004;48.206;16.402;2022-08-06T09:07:08;1.20;;;1.10;;
13868;SDS011;7004;48.206;16.402;2022-08-06T09:09:36;1.53;;;1.43;;
13868;SDS011;7004;48.206;16.402;2022-08-06T09:12:05;1.33;;;1.23;;
13868;SDS011;7004;48.206;16.402;2022-08-06T09:14:33;1.20;;;1.20;;
13868;SDS011;7004;48.206;16.402;2022-08-06T09:17:03;1.50;;;1.40;;
13868;SDS011;7004;48.206;16.402;2022-08-06T09:19:31;2.00;;;1.20;;
13868;SDS011;7004;48.206;16.402;2022-08-06T09:21:58;1.40;;;1.30;;
13868;SDS011;7004;48.206;16.402;2022-08-06T09:24:25;3.13;;;1.30;;
13868;SDS011;7004;48.206;16.402;2022-08-06T09:27:02;1.50;;;1.40;;
13868;SDS011;7004;48.206;16.402;2022-08-06T09:29:29;2.37;;;1.40;;
13868;SDS011;7004;48.206;16.402;2022-08-06T09:31:55;1.50;;;1.40;;
13868;SDS011;7004;48.206;16.402;2022-08-06T09:34:22;1.90;;;1.60;;
13868;SDS011;7004;48.206;16.402;2022-08-06T09:37:03;2.13;;;1.40;;
13868;SDS011;7004;48.206;16.402;2022-08-06T09:39:39;3.70;;;1.50;;
13868;SDS011;7004;48.206;16.402;2022-08-06T09:42:06;1.90;;;1.70;;
13868;SDS011;7004;48.206;16.402;2022-08-06T09:44:33;1.67;;;1.50;;
13868;SDS011;7004;48.206;16.402;2022-08-06T09:46:59;1.40;;;1.30;;
13868;SDS011;7004;48.206;16.402;2022-08-06T09:49:26;3.80;;;1.53;;
13868;SDS011;7004;48.206;16.402;2022-08-06T09:52:12;1.70;;;1.60;;
13868;SDS011;7004;48.206;16.402;2022-08-06T09:54:43;1.83;;;1.50;;
13868;SDS011;7004;48.206;16.402;2022-08-06T09:57:12;1.33;;;1.23;;
13868;SDS011;7004;48.206;16.402;2022-08-06T09:59:42;1.80;;;1.50;;
13868;SDS011;7004;48.206;16.402;2022-08-06T10:02:15;1.30;;;1.20;;
13868;SDS011;7004;48.206;16.402;2022-08-06T10:04:44;1.23;;;1.20;;
13868;SDS011;7004;48.206;16.402;2022-08-06T10:07:10;2.97;;;1.90;;
13868;SDS011;7004;48.206;16.402;2022-08-06T10:09:51;1.43;;;1.20;;
13868;SDS011;7004;48.206;16.402;2022-08-06T10:12:23;1.50;;;1.40;;
13868;SDS011;7004;48.206;16.402;2022-08-06T10:14:50;0.90;;;0.90;;
13868;SDS011;7004;48.206;16.402;2022-08-06T10:17:20;1.63;;;1.27;;
13868;SDS011;7004;48.206;16.402;2022-08-06T10:20:08;1.23;;;1.23;;
13868;SDS011;7004;48.206;16.402;2022-08-06T10:22:51;1.40;;;1.30;;
13868;SDS011;7004;48.206;16.402;2022-08-06T10:25:25;1.77;;;1.40;;
13868;SDS011;7004;48.206;16.402;2022-08-06T10:27:54;1.20;;;1.17;;
13868;SDS011;7004;48.206;16.402;2022-08-06T10:30:22;3.90;;;1.60;;
13868;SDS011;7004;48.206;16.402;2022-08-06T10:32:51;2.70;;;1.50;;
13868;SDS011;7004;48.206;16.402;2022-08-06T10:35:23;1.63;;;1.53;;
13868;SDS011;7004;48.206;16.402;2022-08-06T10:37:52;2.33;;;1.60;;
13868;SDS011;7004;48.206;16.402;2022-08-06T10:40:28;2.07;;;1.90;;
13868;SDS011;7004;48.206;16.402;2022-08-06T10:42:58;2.20;;;2.00;;
13868;SDS011;7004;48.206;16.402;2022-08-06T10:45:29;2.80;;;2.10;;
13868;SDS011;7004;48.206;16.402;2022-08-06T10:47:56;3.63;;;2.30;;
13868;SDS011;7004;48.206;16.402;2022-08-06T10:50:23;3.27;;;2.03;;
13868;SDS011;7004;48.206;16.402;2022-08-06T10:52:49;2.20;;;2.00;;
13868;SDS011;7004;48.206;16.402;2022-08-06T10:55:17;2.47;;;2.10;;
13868;SDS011;7004;48.206;16.402;2022-08-06T10:57:43;2.83;;;2.60;;
13868;SDS011;7004;48.206;16.402;2022-08-06T11:00:09;3.80;;;2.33;;
13868;SDS011;7004;48.206;16.402;2022-08-06T11:05:46;2.70;;;2.50;;
13868;SDS011;7004;48.206;16.402;2022-08-06T11:14:43;3.00;;;2.80;;
13868;SDS011;7004;48.206;16.402;2022-08-06T11:17:11;4.50;;;3.23;;
13868;SDS011;7004;48.206;16.402;2022-08-06T11:25:07;3.50;;;3.23;;
13868;SDS011;7004;48.206;16.402;2022-08-06T11:30:15;3.70;;;3.40;;
13868;SDS011;7004;48.206;16.402;2022-08-06T11:32:47;5.27;;;3.20;;
13868;SDS011;7004;48.206;16.402;2022-08-06T11:38:08;3.23;;;2.93;;
13868;SDS011;7004;48.206;16.402;2022-08-06T11:46:33;3.50;;;3.20;;
13868;SDS011;7004;48.206;16.402;2022-08-06T11:49:41;3.43;;;2.97;;
13868;SDS011;7004;48.206;16.402;2022-08-06T11:52:02;2.97;;;2.67;;
13868;SDS011;7004;48.206;16.402;2022-08-06T11:54:29;2.90;;;2.70;;
13868;SDS011;7004;48.206;16.402;2022-08-06T12:02:16;3.70;;;2.67;;
13868;SDS011;7004;48.206;16.402;2022-08-06T12:07:38;3.53;;;2.50;;
13868;SDS011;7004;48.206;16.402;2022-08-06T12:10:14;4.87;;;3.73;;
13868;SDS011;7004;48.206;16.402;2022-08-06T12:12:47;3.23;;;2.97;;
13868;SDS011;7004;48.206;16.402;2022-08-06T12:18:02;4.50;;;3.20;;
13868;SDS011;7004;48.206;16.402;2022-08-06T12:20:39;3.40;;;3.10;;
13868;SDS011;7004;48.206;16.402;2022-08-06T12:23:08;3.27;;;2.93;;
13868;SDS011;7004;48.206;16.402;2022-08-06T12:25:44;3.80;;;3.40;;
13868;SDS011;7004;48.206;16.402;2022-08-06T12:28:15;3.53;;;3.23;;
13868;SDS011;7004;48.206;16.402;2022-08-06T12:30:43;3.60;;;3.30;;
13868;SDS011;7004;48.206;16.402;2022-08-06T12:33:11;3.33;;;3.13;;
13868;SDS011;7004;48.206;16.402;2022-08-06T12:35:51;3.20;;;3.00;;
13868;SDS011;7004;48.206;16.402;2022-08-06T12:38:19;3.40;;;3.10;;
13868;SDS011;7004;48.206;16.402;2022-08-06T12:40:56;3.37;;;3.13;;
13868;SDS011;7004;48.206;16.402;2022-08-06T12:43:27;3.63;;;3.33;;
13868;SDS011;7004;48.206;16.402;2022-08-06T12:45:56;3.60;;;3.30;;
13868;SDS011;7004;48.206;16.402;2022-08-06T12:48:24;7.20;;;3.90;;
13868;SDS011;7004;48.206;16.402;2022-08-06T12:50:55;3.60;;;3.30;;
13868;SDS011;7004;48.206;16.402;2022-08-06T12:53:39;3.50;;;3.20;;
13868;SDS011;7004;48.206;16.402;2022-08-06T12:56:18;3.27;;;3.07;;
13868;SDS011;7004;48.206;16.402;2022-08-06T12:58:47;3.70;;;3.40;;
13868;SDS011;7004;48.206;16.402;2022-08-06T13:01:16;5.40;;;3.57;;
13868;SDS011;7004;48.206;16.402;2022-08-06T13:03:45;3.63;;;3.33;;
13868;SDS011;7004;48.206;16.402;2022-08-06T13:06:15;4.50;;;4.10;;
13868;SDS011;7004;48.206;16.402;2022-08-06T13:08:46;4.83;;;4.33;;
13868;SDS011;7004;48.206;16.402;2022-08-06T13:11:13;4.73;;;3.90;;
13868;SDS011;7004;48.206;16.402;2022-08-06T13:13:50;5.00;;;4.57;;
13868;SDS011;7004;48.206;16.402;2022-08-06T13:16:17;4.37;;;4.07;;
13868;SDS011;7004;48.206;16.402;2022-08-06T13:19:05;4.90;;;4.40;;
13868;SDS011;7004;48.206;16.402;2022-08-06T13:21:36;5.67;;;5.17;;
13868;SDS011;7004;48.206;16.402;2022-08-06T13:24:04;6.07;;;5.47;;
13868;SDS011;7004;48.206;16.402;2022-08-06T13:26:32;5.40;;;4.90;;
13868;SDS011;7004;48.206;16.402;2022-08-06T13:29:16;6.07;;;5.57;;
13868;SDS011;7004;48.206;16.402;2022-08-06T13:31:56;8.63;;;6.00;;
13868;SDS011;7004;48.206;16.402;2022-08-06T13:34:25;7.87;;;5.70;;
13868;SDS011;7004;48.206;16.402;2022-08-06T13:36:52;5.67;;;5.03;;
13868;SDS011;7004;48.206;16.402;2022-08-06T13:42:10;6.17;;;5.63;;
13868;SDS011;7004;48.206;16.402;2022-08-06T13:44:43;6.27;;;5.77;;
13868;SDS011;7004;48.206;16.402;2022-08-06T13:47:11;6.70;;;6.20;;
13868;SDS011;7004;48.206;16.402;2022-08-06T13:49:50;8.80;;;6.20;;
13868;SDS011;7004;48.206;16.402;2022-08-06T13:52:16;6.23;;;5.63;;
13868;SDS011;7004;48.206;16.402;2022-08-06T13:54:42;7.80;;;6.80;;
13868;SDS011;7004;48.206;16.402;2022-08-06T13:57:08;7.67;;;6.33;;
13868;SDS011;7004;48.206;16.402;2022-08-06T13:59:36;9.27;;;6.60;;
13868;SDS011;7004;48.206;16.402;2022-08-06T14:02:03;6.83;;;6.20;;
13868;SDS011;7004;48.206;16.402;2022-08-06T14:04:29;7.93;;;7.27;;
13868;SDS011;7004;48.206;16.402;2022-08-06T14:06:57;8.17;;;7.47;;
13868;SDS011;7004;48.206;16.402;2022-08-06T14:09:25;8.33;;;7.47;;
13868;SDS011;7004;48.206;16.402;2022-08-06T14:11:55;7.70;;;6.97;;
13868;SDS011;7004;48.206;16.402;2022-08-06T14:14:24;9.17;;;6.83;;
13868;SDS011;7004;48.206;16.402;2022-08-06T14:16:57;6.90;;;6.20;;
13868;SDS011;7004;48.206;16.402;2022-08-06T14:19:25;7.40;;;6.40;;
13868;SDS011;7004;48.206;16.402;2022-08-06T14:21:53;7.07;;;6.47;;
13868;SDS011;7004;48.206;16.402;2022-08-06T14:24:19;7.13;;;6.50;;
13868;SDS011;7004;48.206;16.402;2022-08-06T14:26:45;6.20;;;5.60;;
13868;SDS011;7004;48.206;16.402;2022-08-06T14:29:11;7.00;;;6.40;;
13868;SDS011;7004;48.206;16.402;2022-08-06T14:31:37;6.67;;;6.10;;
13868;SDS011;7004;48.206;16.402;2022-08-06T14:34:03;7.10;;;6.50;;
13868;SDS011;7004;48.206;16.402;2022-08-06T14:36:29;6.97;;;6.43;;
13868;SDS011;7004;48.206;16.402;2022-08-06T14:38:59;8.17;;;5.87;;
13868;SDS011;7004;48.206;16.402;2022-08-06T14:41:25;6.40;;;5.77;;
13868;SDS011;7004;48.206;16.402;2022-08-06T14:44:10;6.70;;;6.20;;
13868;SDS011;7004;48.206;16.402;2022-08-06T14:46:55;6.47;;;5.80;;
13868;SDS011;7004;48.206;16.402;2022-08-06T14:49:23;6.50;;;6.00;;
13868;SDS011;7004;48.206;16.402;2022-08-06T14:51:49;6.50;;;6.00;;
13868;SDS011;7004;48.206;16.402;2022-08-06T14:54:15;6.90;;;6.17;;
13868;SDS011;7004;48.206;16.402;2022-08-06T14:56:43;6.20;;;5.70;;
13868;SDS011;7004;48.206;16.402;2022-08-06T14:59:10;6.83;;;6.23;;
13868;SDS011;7004;48.206;16.402;2022-08-06T15:01:36;6.10;;;5.60;;
13868;SDS011;7004;48.206;16.402;2022-08-06T15:04:03;5.77;;;5.37;;
13868;SDS011;7004;48.206;16.402;2022-08-06T15:06:29;5.47;;;4.97;;
13868;SDS011;7004;48.206;16.402;2022-08-06T15:08:56;5.27;;;4.87;;
13868;SDS011;7004;48.206;16.402;2022-08-06T15:11:22;4.57;;;4.17;;
13868;SDS011;7004;48.206;16.402;2022-08-06T15:13:48;5.07;;;4.67;;
13868;SDS011;7004;48.206;16.402;2022-08-06T15:16:15;4.63;;;4.27;;
13868;SDS011;7004;48.206;16.402;2022-08-06T15:18:40;4.00;;;3.70;;
13868;SDS011;7004;48.206;16.402;2022-08-06T15:21:08;4.97;;;3.80;;
13868;SDS011;7004;48.206;16.402;2022-08-06T15:23:34;3.67;;;3.37;;
13868;SDS011;7004;48.206;16.402;2022-08-06T15:26:01;3.70;;;3.40;;
13868;SDS011;7004;48.206;16.402;2022-08-06T15:28:27;2.40;;;2.20;;
13868;SDS011;7004;48.206;16.402;2022-08-06T15:30:53;2.70;;;2.50;;
13868;SDS011;7004;48.206;16.402;2022-08-06T15:33:20;2.87;;;2.60;;
13868;SDS011;7004;48.206;16.402;2022-08-06T15:35:47;2.97;;;2.70;;
13868;SDS011;7004;48.206;16.402;2022-08-06T15:38:13;4.90;;;2.60;;
13868;SDS011;7004;48.206;16.402;2022-08-06T15:40:39;2.90;;;2.57;;
13868;SDS011;7004;48.206;16.402;2022-08-06T15:43:05;2.23;;;1.97;;
13868;SDS011;7004;48.206;16.402;2022-08-06T15:45:31;2.53;;;2.33;;
13868;SDS011;7004;48.206;16.402;2022-08-06T15:47:57;2.60;;;2.40;;
13868;SDS011;7004;48.206;16.402;2022-08-06T15:50:24;4.60;;;2.17;;
13868;SDS011;7004;48.206;16.402;2022-08-06T15:52:51;2.60;;;2.20;;
13868;SDS011;7004;48.206;16.402;2022-08-06T15:55:18;3.03;;;2.50;;
13868;SDS011;7004;48.206;16.402;2022-08-06T15:57:46;2.60;;;2.40;;
13868;SDS011;7004;48.206;16.402;2022-08-06T16:00:13;2.23;;;2.13;;
13868;SDS011;7004;48.206;16.402;2022-08-06T16:02:41;2.50;;;2.30;;
13868;SDS011;7004;48.206;16.402;2022-08-06T16:05:07;3.30;;;2.63;;
13868;SDS011;7004;48.206;16.402;2022-08-06T16:07:33;3.47;;;2.70;;
13868;SDS011;7004;48.206;16.402;2022-08-06T16:09:59;2.93;;;2.40;;
13868;SDS011;7004;48.206;16.402;2022-08-06T16:12:26;3.57;;;2.67;;
13868;SDS011;7004;48.206;16.402;2022-08-06T16:14:52;2.60;;;2.40;;
13868;SDS011;7004;48.206;16.402;2022-08-06T16:17:18;2.57;;;2.23;;
13868;SDS011;7004;48.206;16.402;2022-08-06T16:19:45;2.67;;;2.40;;
13868;SDS011;7004;48.206;16.402;2022-08-06T16:22:11;2.67;;;2.47;;
13868;SDS011;7004;48.206;16.402;2022-08-06T16:24:37;2.73;;;2.40;;
13868;SDS011;7004;48.206;16.402;2022-08-06T16:27:03;3.77;;;2.73;;